Time;durP1;ratioP1;P1;durP2;ratioP2;P2;SDS_P1;SDS_P2;PMS_P1;PMS_P2;Temp;Humidity;BMP_temperature;BMP_pressure;BME280_temperature;BME280_humidity;BME280_pressure;Samples;Min_cycle;Max_cycle;Signal;HPM_P1;HPM_P2
2021/06/27 00:01:51;;;;;;;0.10;0.10;;;17.70;99.90;;;;;;5029840;28;20018;-81
2021/06/27 00:04:18;;;;;;;0.10;0.10;;;17.70;99.90;;;;;;5030938;28;20029;-81
2021/06/27 00:06:44;;;;;;;0.65;0.38;;;17.70;99.90;;;;;;5030616;28;20469;-81
2021/06/27 00:09:10;;;;;;;0.28;0.28;;;17.50;99.90;;;;;;5026737;28;20084;-81
2021/06/27 00:11:36;;;;;;;0.17;0.15;;;17.40;99.90;;;;;;5025462;28;20038;-80
2021/06/27 00:14:03;;;;;;;0.10;0.10;;;17.40;99.90;;;;;;5011023;28;20065;-81
2021/06/27 00:16:31;;;;;;;0.50;0.30;;;17.30;99.90;;;;;;5010671;28;20399;-81
2021/06/27 00:18:59;;;;;;;0.22;0.22;;;17.30;99.90;;;;;;5028780;28;20414;-80
2021/06/27 00:21:25;;;;;;;0.08;0.08;;;17.30;99.90;;;;;;5030100;28;20018;-80
2021/06/27 00:23:51;;;;;;;0.10;0.10;;;17.30;99.90;;;;;;5045703;28;20403;-80
2021/06/27 00:26:21;;;;;;;0.03;0.03;;;17.30;99.90;;;;;;5030442;28;20064;-80
2021/06/27 00:28:47;;;;;;;0.00;0.00;;;17.30;99.90;;;;;;5028702;28;20480;-81
2021/06/27 00:31:14;;;;;;;0.10;0.10;;;17.30;99.90;;;;;;5025476;28;20068;-80
2021/06/27 00:33:40;;;;;;;0.80;0.08;;;17.30;99.90;;;;;;5020063;28;20482;-81
2021/06/27 00:36:07;;;;;;;0.17;0.17;;;17.30;99.90;;;;;;5029962;28;20033;-81
2021/06/27 00:38:34;;;;;;;0.47;0.35;;;17.30;99.90;;;;;;5030143;28;20022;-81
2021/06/27 00:41:00;;;;;;;0.28;0.22;;;17.30;99.90;;;;;;5021003;28;20092;-80
2021/06/27 00:43:25;;;;;;;0.00;0.00;;;17.40;99.90;;;;;;5026205;28;20145;-80
2021/06/27 00:45:52;;;;;;;0.10;0.10;;;17.40;99.90;;;;;;5027672;28;20036;-81
2021/06/27 00:48:18;;;;;;;;;;;17.40;99.90;;;;;;5028908;28;20053;-81
2021/06/27 00:50:53;;;;;;;0.10;0.10;;;17.40;99.90;;;;;;5029578;28;20379;-81
2021/06/27 00:53:20;;;;;;;0.17;0.17;;;17.40;99.90;;;;;;5044855;28;20288;-81
2021/06/27 00:55:54;;;;;;;0.28;0.28;;;17.50;99.90;;;;;;5029889;28;20016;-80
2021/06/27 00:58:27;;;;;;;0.13;0.13;;;17.50;99.90;;;;;;5029568;28;20060;-81
2021/06/27 01:00:53;;;;;;;0.50;0.50;;;17.40;99.90;;;;;;5027154;28;20407;-81
2021/06/27 01:03:19;;;;;;;0.00;0.00;;;17.50;99.90;;;;;;5029790;28;20033;-81
2021/06/27 01:05:45;;;;;;;0.30;0.30;;;17.50;99.90;;;;;;5029285;28;20436;-81
2021/06/27 01:08:11;;;;;;;0.10;0.10;;;17.50;99.90;;;;;;5029797;28;20029;-81
2021/06/27 01:10:37;;;;;;;0.20;0.20;;;17.40;99.90;;;;;;5017221;28;20678;-81
2021/06/27 01:13:05;;;;;;;0.20;0.20;;;17.50;99.90;;;;;;5010036;28;20081;-81
2021/06/27 01:15:31;;;;;;;0.10;0.10;;;17.50;99.90;;;;;;5010221;28;20037;-81
2021/06/27 01:17:57;;;;;;;0.10;0.10;;;17.50;99.90;;;;;;5025043;28;20084;-81
2021/06/27 01:20:32;;;;;;;0.20;0.20;;;17.50;99.90;;;;;;5010022;28;20480;-80
2021/06/27 01:23:00;;;;;;;0.10;0.10;;;17.50;99.90;;;;;;5010197;28;20034;-80
2021/06/27 01:25:30;;;;;;;0.55;0.35;;;17.50;99.90;;;;;;5010143;28;20431;-81
2021/06/27 01:27:58;;;;;;;0.40;0.20;;;17.50;99.90;;;;;;5010201;28;20112;-80
2021/06/27 01:30:25;;;;;;;0.00;0.00;;;17.50;99.90;;;;;;5026877;28;20056;-80
2021/06/27 01:32:53;;;;;;;0.17;0.17;;;17.50;99.90;;;;;;5029585;28;20045;-80
2021/06/27 01:35:22;;;;;;;0.00;0.00;;;17.50;99.90;;;;;;5029281;28;20108;-81
2021/06/27 01:37:51;;;;;;;0.22;0.22;;;17.50;99.90;;;;;;5029355;28;20025;-80
2021/06/27 01:40:19;;;;;;;0.10;0.10;;;17.50;99.90;;;;;;5029558;28;20109;-80
2021/06/27 01:42:46;;;;;;;0.10;0.10;;;17.50;99.90;;;;;;5029691;28;20036;-80
2021/06/27 01:45:14;;;;;;;;;;;17.50;99.90;;;;;;5028600;28;20125;-81
2021/06/27 01:47:40;;;;;;;0.03;0.03;;;17.50;99.90;;;;;;5029119;28;20418;-81
2021/06/27 01:50:07;;;;;;;0.10;0.10;;;17.50;99.90;;;;;;5029066;28;20025;-81
2021/06/27 01:52:34;;;;;;;0.17;0.17;;;17.50;99.90;;;;;;5029687;28;20022;-81
2021/06/27 01:55:00;;;;;;;0.05;0.05;;;17.50;99.90;;;;;;5028382;28;20041;-80
2021/06/27 01:57:26;;;;;;;0.10;0.10;;;17.60;99.90;;;;;;5029328;28;20029;-81
2021/06/27 01:59:52;;;;;;;0.10;0.10;;;17.60;99.90;;;;;;5029387;28;20021;-80
2021/06/27 02:02:18;;;;;;;0.10;0.10;;;17.60;99.90;;;;;;5029505;28;20038;-80
2021/06/27 02:04:45;;;;;;;0.38;0.30;;;17.50;99.90;;;;;;5027049;28;20055;-80
2021/06/27 02:07:13;;;;;;;0.10;0.10;;;17.60;99.90;;;;;;5009276;28;20044;-81
2021/06/27 02:09:40;;;;;;;0.10;0.10;;;17.60;99.90;;;;;;5024670;28;20034;-81
2021/06/27 02:12:08;;;;;;;0.10;0.10;;;17.50;99.90;;;;;;5012252;28;20037;-81
2021/06/27 02:14:38;;;;;;;0.00;0.00;;;17.50;99.90;;;;;;5013278;28;20018;-80
2021/06/27 02:17:04;;;;;;;0.08;0.08;;;17.60;99.90;;;;;;5013037;28;20037;-81
2021/06/27 02:19:31;;;;;;;0.10;0.10;;;17.70;99.90;;;;;;5013250;28;20091;-80
2021/06/27 02:21:56;;;;;;;0.00;0.00;;;17.60;99.90;;;;;;5028183;28;20133;-80
2021/06/27 02:24:22;;;;;;;0.13;0.13;;;17.60;99.90;;;;;;5013225;28;20572;-80
2021/06/27 02:26:48;;;;;;;0.00;0.00;;;17.60;99.90;;;;;;5012915;28;20037;-80
2021/06/27 02:29:14;;;;;;;0.73;0.47;;;17.60;99.90;;;;;;5013202;28;20026;-80
2021/06/27 02:31:47;;;;;;;0.00;0.00;;;17.50;99.90;;;;;;5025241;28;20045;-80
2021/06/27 02:34:13;;;;;;;0.00;0.00;;;17.60;99.90;;;;;;5032833;28;20487;-80
2021/06/27 02:36:39;;;;;;;0.00;0.00;;;17.50;99.90;;;;;;5032345;28;20032;-80
2021/06/27 02:39:05;;;;;;;0.10;0.10;;;17.70;99.90;;;;;;5032570;28;20430;-80
2021/06/27 02:41:30;;;;;;;0.00;0.00;;;17.70;99.90;;;;;;5032146;28;20075;-80
2021/06/27 02:43:56;;;;;;;0.00;0.00;;;17.70;99.90;;;;;;5031260;28;20083;-80
2021/06/27 02:46:22;;;;;;;0.00;0.00;;;17.70;99.90;;;;;;5017656;28;20041;-81
2021/06/27 02:48:48;;;;;;;0.10;0.10;;;17.60;99.90;;;;;;5012779;28;20522;-80
2021/06/27 02:51:13;;;;;;;0.00;0.00;;;17.60;99.90;;;;;;5019901;28;20683;-80
2021/06/27 02:53:39;;;;;;;0.00;0.00;;;17.60;99.90;;;;;;5032411;28;20364;-80
2021/06/27 02:56:09;;;;;;;0.10;0.10;;;17.60;99.90;;;;;;5031980;28;20052;-80
2021/06/27 02:58:37;;;;;;;0.10;0.10;;;17.60;99.90;;;;;;5032246;28;20041;-81
2021/06/27 03:01:03;;;;;;;9.43;0.55;;;17.50;99.90;;;;;;5032189;28;20025;-80
2021/06/27 03:03:29;;;;;;;0.10;0.10;;;17.50;99.90;;;;;;5029645;28;20493;-81
2021/06/27 03:05:55;;;;;;;0.10;0.10;;;17.50;99.90;;;;;;5031853;28;20056;-80
2021/06/27 03:08:21;;;;;;;0.10;0.10;;;17.50;99.90;;;;;;5032321;28;20529;-80
2021/06/27 03:10:47;;;;;;;0.10;0.10;;;17.50;99.90;;;;;;5031646;28;20038;-80
2021/06/27 03:13:12;;;;;;;0.00;0.00;;;17.50;99.90;;;;;;5032027;28;20465;-80
2021/06/27 03:15:38;;;;;;;0.00;0.00;;;17.50;99.90;;;;;;5029471;28;20031;-80
2021/06/27 03:18:04;;;;;;;0.00;0.00;;;17.50;99.90;;;;;;5032149;28;20112;-80
2021/06/27 03:20:30;;;;;;;0.10;0.10;;;17.40;99.90;;;;;;5031962;28;20022;-80
2021/06/27 03:22:56;;;;;;;0.10;0.10;;;17.30;99.90;;;;;;5030506;28;20823;-80
2021/06/27 03:25:25;;;;;;;0.20;0.20;;;17.30;99.90;;;;;;5031694;28;20438;-80
2021/06/27 03:27:52;;;;;;;0.10;0.10;;;17.30;99.90;;;;;;5031519;28;20117;-80
2021/06/27 03:30:18;;;;;;;0.20;0.20;;;17.30;99.90;;;;;;5030675;28;20025;-80
2021/06/27 03:32:45;;;;;;;0.00;0.00;;;17.30;99.90;;;;;;5031584;28;20033;-80
2021/06/27 03:35:11;;;;;;;0.08;0.08;;;17.30;99.90;;;;;;5031733;28;20022;-80
2021/06/27 03:37:40;;;;;;;0.03;0.03;;;17.30;99.90;;;;;;5031689;28;20033;-80
2021/06/27 03:40:07;;;;;;;0.17;0.17;;;17.30;99.90;;;;;;5029908;28;20026;-80
2021/06/27 03:42:33;;;;;;;0.10;0.10;;;17.30;99.90;;;;;;5010308;28;20506;-80
2021/06/27 03:44:58;;;;;;;0.10;0.10;;;17.40;99.90;;;;;;5011376;28;20065;-80
2021/06/27 03:47:25;;;;;;;0.00;0.00;;;17.30;99.90;;;;;;5012318;28;20032;-80
2021/06/27 03:49:51;;;;;;;0.10;0.10;;;17.30;99.90;;;;;;5011466;28;20041;-80
2021/06/27 03:52:17;;;;;;;0.20;0.20;;;17.20;99.90;;;;;;5028700;28;20034;-80
2021/06/27 03:54:43;;;;;;;0.10;0.10;;;17.20;99.90;;;;;;5031405;28;20260;-80
2021/06/27 03:57:08;;;;;;;0.10;0.10;;;17.20;99.90;;;;;;5030843;28;20056;-80
2021/06/27 03:59:34;;;;;;;0.10;0.10;;;17.30;99.90;;;;;;5031405;28;20030;-80
2021/06/27 04:02:00;;;;;;;0.00;0.00;;;17.20;99.90;;;;;;5016304;28;20798;-81
2021/06/27 04:04:26;;;;;;;0.00;0.00;;;17.20;99.90;;;;;;5011277;28;20026;-80
2021/06/27 04:06:51;;;;;;;0.10;0.10;;;17.20;99.90;;;;;;5022939;28;20116;-80
2021/06/27 04:09:17;;;;;;;0.20;0.20;;;17.20;99.90;;;;;;5030841;28;20377;-80
2021/06/27 04:11:43;;;;;;;0.00;0.00;;;17.10;99.90;;;;;;5031072;28;20024;-80
2021/06/27 04:14:09;;;;;;;0.10;0.10;;;17.10;99.90;;;;;;5030835;28;20029;-80
2021/06/27 04:16:34;;;;;;;0.00;0.00;;;17.00;99.90;;;;;;5028605;28;20030;-80
2021/06/27 04:19:00;;;;;;;0.00;0.00;;;16.90;99.90;;;;;;5030859;28;20030;-81
2021/06/27 04:21:26;;;;;;;0.30;0.20;;;16.90;99.90;;;;;;5030923;28;20053;-81
2021/06/27 04:23:52;;;;;;;0.07;0.07;;;16.90;99.90;;;;;;5030760;28;20036;-80
2021/06/27 04:26:18;;;;;;;0.00;0.00;;;17.00;99.90;;;;;;5030641;28;20104;-80
2021/06/27 04:28:43;;;;;;;0.00;0.00;;;17.00;99.90;;;;;;5030832;28;20501;-81
2021/06/27 04:31:09;;;;;;;0.10;0.10;;;17.00;99.90;;;;;;5029248;28;20026;-80
2021/06/27 04:33:35;;;;;;;0.00;0.00;;;17.00;99.90;;;;;;5028589;28;20049;-80
2021/06/27 04:36:01;;;;;;;0.03;0.03;;;17.10;99.90;;;;;;5029259;28;20029;-80
2021/06/27 04:38:27;;;;;;;0.03;0.03;;;17.10;99.90;;;;;;5029975;28;20017;-80
2021/06/27 04:40:54;;;;;;;0.10;0.10;;;17.10;99.90;;;;;;5029281;28;20022;-80
2021/06/27 04:43:20;;;;;;;0.10;0.10;;;17.10;99.90;;;;;;5029971;28;20041;-80
2021/06/27 04:45:46;;;;;;;0.10;0.10;;;17.10;99.90;;;;;;5030052;28;20762;-80
2021/06/27 04:48:12;;;;;;;1.00;0.43;;;17.20;99.90;;;;;;5029026;28;20260;-81
2021/06/27 04:50:38;;;;;;;0.00;0.00;;;17.00;99.90;;;;;;5029982;28;20032;-81
2021/06/27 04:53:09;;;;;;;0.10;0.10;;;17.00;99.90;;;;;;5029873;28;20112;-80
2021/06/27 04:55:35;;;;;;;0.13;0.13;;;17.00;99.90;;;;;;5029559;28;20545;-80
2021/06/27 04:58:01;;;;;;;0.00;0.00;;;16.90;99.90;;;;;;5029707;28;20022;-80
2021/06/27 05:00:27;;;;;;;0.10;0.10;;;17.00;99.90;;;;;;5044563;28;20134;-80
2021/06/27 05:02:52;;;;;;;0.10;0.10;;;16.80;99.90;;;;;;5026411;28;20037;-80
2021/06/27 05:05:18;;;;;;;0.07;0.07;;;16.80;99.90;;;;;;5009920;28;20491;-80
2021/06/27 05:07:44;;;;;;;0.10;0.10;;;16.80;99.90;;;;;;5009670;28;20125;-80
2021/06/27 05:10:10;;;;;;;0.10;0.10;;;16.80;99.90;;;;;;5009903;28;20022;-80
2021/06/27 05:12:36;;;;;;;0.08;0.08;;;16.80;99.90;;;;;;5024526;28;20042;-80
2021/06/27 05:15:02;;;;;;;0.20;0.20;;;16.70;99.90;;;;;;5009652;28;20022;-80
2021/06/27 05:17:28;;;;;;;0.20;0.20;;;16.80;99.90;;;;;;5009097;28;20033;-80
2021/06/27 05:19:54;;;;;;;0.20;0.20;;;16.80;99.90;;;;;;5009705;28;20034;-80
2021/06/27 05:22:20;;;;;;;0.10;0.10;;;16.90;99.90;;;;;;5009144;28;20065;-80
2021/06/27 05:24:46;;;;;;;0.00;0.00;;;16.90;99.90;;;;;;5009402;28;20041;-80
2021/06/27 05:27:12;;;;;;;0.00;0.00;;;17.00;99.90;;;;;;5009915;28;20480;-80
2021/06/27 05:29:38;;;;;;;0.27;0.27;;;17.10;99.90;;;;;;5009613;28;20026;-80
2021/06/27 05:32:04;;;;;;;0.03;0.03;;;17.00;99.90;;;;;;5009010;28;20446;-80
2021/06/27 05:34:30;;;;;;;0.00;0.00;;;16.80;99.90;;;;;;5009321;28;20030;-80
2021/06/27 05:36:57;;;;;;;0.10;0.10;;;16.90;99.90;;;;;;5009338;28;20030;-80
2021/06/27 05:39:23;;;;;;;0.00;0.00;;;16.90;99.90;;;;;;5016742;28;20056;-80
2021/06/27 05:41:49;;;;;;;0.10;0.10;;;17.10;99.90;;;;;;5028617;28;20049;-80
2021/06/27 05:44:15;;;;;;;0.10;0.10;;;17.20;99.90;;;;;;5029306;28;20037;-80
2021/06/27 05:46:41;;;;;;;0.10;0.10;;;17.20;99.90;;;;;;5012198;28;20522;-80
2021/06/27 05:49:07;;;;;;;0.10;0.10;;;17.40;99.90;;;;;;5009261;28;20033;-80
2021/06/27 05:51:36;;;;;;;0.20;0.20;;;17.50;99.90;;;;;;5009049;28;20068;-80
2021/06/27 05:54:02;;;;;;;0.10;0.10;;;17.40;99.90;;;;;;5023639;28;20034;-80
2021/06/27 05:56:28;;;;;;;0.00;0.00;;;17.40;99.90;;;;;;5008532;28;20057;-80
2021/06/27 05:58:54;;;;;;;0.00;0.00;;;17.40;99.90;;;;;;5008514;28;20025;-80
2021/06/27 06:01:19;;;;;;;0.00;0.00;;;17.30;99.90;;;;;;5008971;28;20057;-80
2021/06/27 06:03:45;;;;;;;0.10;0.10;;;17.40;99.90;;;;;;5008687;28;20030;-81
2021/06/27 06:06:12;;;;;;;0.10;0.10;;;17.20;99.90;;;;;;5015078;28;20156;-81
2021/06/27 06:08:42;;;;;;;;;;;17.10;99.90;;;;;;5029440;28;20090;-81
2021/06/27 06:11:13;;;;;;;0.10;0.10;;;16.80;99.90;;;;;;5027875;28;19913;-80
2021/06/27 06:13:39;;;;;;;0.10;0.10;;;16.90;99.90;;;;;;5028762;28;20034;-80
2021/06/27 06:16:06;;;;;;;0.00;0.00;;;17.00;99.90;;;;;;5027755;28;20543;-82
2021/06/27 06:18:32;;;;;;;0.10;0.10;;;17.30;99.90;;;;;;5029293;28;20056;-82
2021/06/27 06:20:59;;;;;;;0.00;0.00;;;16.80;99.90;;;;;;5028849;28;20102;-82
2021/06/27 06:23:25;;;;;;;0.17;0.17;;;17.10;99.90;;;;;;5029367;28;20028;-83
2021/06/27 06:25:51;;;;;;;0.20;0.20;;;17.50;99.90;;;;;;5026302;28;20037;-82
2021/06/27 06:28:17;;;;;;;0.10;0.10;;;17.30;99.90;;;;;;5028664;28;20039;-83
2021/06/27 06:30:46;;;;;;;0.10;0.10;;;17.30;99.90;;;;;;5027079;28;20037;-83
2021/06/27 06:33:12;;;;;;;0.05;0.05;;;17.00;99.90;;;;;;5017466;28;20026;-82
2021/06/27 06:35:38;;;;;;;0.10;0.10;;;16.90;99.90;;;;;;5028607;28;20075;-83
2021/06/27 06:38:05;;;;;;;0.10;0.10;;;17.00;99.90;;;;;;5016885;28;20292;-82
2021/06/27 06:40:31;;;;;;;0.10;0.10;;;16.90;99.90;;;;;;5018360;28;20087;-82
2021/06/27 06:42:57;;;;;;;0.20;0.20;;;16.80;99.90;;;;;;5028424;28;20890;-82
2021/06/27 06:45:22;;;;;;;0.00;0.00;;;17.00;99.90;;;;;;5026926;28;20101;-82
2021/06/27 06:47:48;;;;;;;0.10;0.10;;;17.00;99.90;;;;;;5015131;28;20623;-82
2021/06/27 06:50:14;;;;;;;0.03;0.03;;;17.20;99.90;;;;;;5008762;28;20100;-82
2021/06/27 06:52:40;;;;;;;0.10;0.10;;;17.40;99.90;;;;;;5008861;28;20793;-84
2021/06/27 06:55:06;;;;;;;0.00;0.00;;;17.40;99.90;;;;;;5009013;28;20110;-84
2021/06/27 06:57:32;;;;;;;0.10;0.10;;;17.10;99.90;;;;;;5009633;28;20085;-85
2021/06/27 06:59:58;;;;;;;0.10;0.10;;;17.10;1.00;;;;;;5012372;28;20443;-85
2021/06/27 07:02:23;;;;;;;0.20;0.20;;;17.10;1.00;;;;;;5022361;28;20116;-85
2021/06/27 07:04:49;;;;;;;0.00;0.00;;;17.30;99.90;;;;;;5030991;28;20026;-85
2021/06/27 07:07:15;;;;;;;1.20;1.10;;;17.30;1.00;;;;;;5031437;28;20050;-84
2021/06/27 07:09:41;;;;;;;0.10;0.10;;;17.50;99.90;;;;;;5030377;28;20061;-84
2021/06/27 07:12:07;;;;;;;0.00;0.00;;;17.70;99.90;;;;;;5031156;28;20542;-85
2021/06/27 07:14:33;;;;;;;0.00;0.00;;;17.80;99.90;;;;;;5031620;28;20030;-85
2021/06/27 07:16:59;;;;;;;0.20;0.20;;;18.10;99.90;;;;;;5030245;28;20034;-85
2021/06/27 07:19:24;;;;;;;0.23;0.10;;;18.00;99.90;;;;;;5031766;28;20108;-85
2021/06/27 07:21:51;;;;;;;0.07;0.07;;;18.00;99.90;;;;;;5021708;28;20030;-85
2021/06/27 07:24:16;;;;;;;0.10;0.10;;;18.20;99.90;;;;;;5026986;28;20029;-85
2021/06/27 07:26:43;;;;;;;0.00;0.00;;;18.30;99.90;;;;;;5011580;28;20034;-85
2021/06/27 07:29:10;;;;;;;0.10;0.10;;;18.30;99.90;;;;;;5011701;28;20026;-85
2021/06/27 07:31:35;;;;;;;0.00;0.00;;;17.80;99.90;;;;;;5011196;28;20183;-85
2021/06/27 07:34:02;;;;;;;0.00;0.00;;;18.20;99.90;;;;;;5011574;28;20105;-85
2021/06/27 07:36:28;;;;;;;0.03;0.03;;;18.50;99.90;;;;;;5011016;28;20026;-85
2021/06/27 07:38:54;;;;;;;0.00;0.00;;;18.60;99.90;;;;;;5027149;28;20087;-85
2021/06/27 07:41:20;;;;;;;0.00;0.00;;;18.60;99.90;;;;;;5031083;28;20096;-85
2021/06/27 07:43:48;;;;;;;0.00;0.00;;;17.60;99.90;;;;;;5031425;28;20260;-85
2021/06/27 07:46:14;;;;;;;0.10;0.10;;;17.40;99.90;;;;;;5030947;28;20502;-85
2021/06/27 07:48:40;;;;;;;0.10;0.10;;;17.70;99.90;;;;;;5031201;28;20044;-82
2021/06/27 07:51:05;;;;;;;0.10;0.10;;;17.90;99.90;;;;;;5031074;28;20033;-83
2021/06/27 07:53:31;;;;;;;0.03;0.03;;;18.30;99.90;;;;;;5045446;28;20566;-83
2021/06/27 07:55:57;;;;;;;0.00;0.00;;;18.30;99.90;;;;;;5030765;28;20029;-82
2021/06/27 07:58:23;;;;;;;0.10;0.10;;;18.60;99.90;;;;;;5030540;28;20474;-83
2021/06/27 08:00:49;;;;;;;0.00;0.00;;;18.60;99.90;;;;;;5021115;28;20753;-83
2021/06/27 08:03:14;;;;;;;0.10;0.10;;;18.70;99.90;;;;;;5031344;28;20510;-83
2021/06/27 08:05:40;;;;;;;0.10;0.10;;;18.90;99.90;;;;;;5030681;28;20578;-83
2021/06/27 08:08:06;;;;;;;0.13;0.13;;;19.10;99.90;;;;;;5028765;28;20053;-83
2021/06/27 08:10:32;;;;;;;0.00;0.00;;;19.10;99.90;;;;;;5030450;28;20123;-83
2021/06/27 08:12:59;;;;;;;0.00;0.00;;;19.10;99.90;;;;;;5030674;28;20041;-83
2021/06/27 08:15:25;;;;;;;0.03;0.03;;;19.20;99.90;;;;;;5030898;28;20036;-82
2021/06/27 08:17:52;;;;;;;0.10;0.10;;;19.60;99.90;;;;;;5030578;28;20398;-82
2021/06/27 08:20:20;;;;;;;0.10;0.10;;;19.90;99.90;;;;;;5030745;28;20126;-82
2021/06/27 08:22:47;;;;;;;0.00;0.00;;;20.00;99.90;;;;;;5030863;28;20103;-83
2021/06/27 08:25:12;;;;;;;0.05;0.05;;;20.10;99.90;;;;;;5045865;28;20048;-83
2021/06/27 08:27:39;;;;;;;0.00;0.00;;;19.90;99.90;;;;;;5030565;28;20588;-83
2021/06/27 08:30:09;;;;;;;0.85;0.55;;;20.00;99.90;;;;;;5027873;28;20037;-82
2021/06/27 08:32:35;;;;;;;0.10;0.10;;;19.70;99.90;;;;;;5030701;28;20026;-83
2021/06/27 08:35:02;;;;;;;0.10;0.10;;;19.90;99.90;;;;;;5030616;28;20447;-83
2021/06/27 08:37:28;;;;;;;0.00;0.00;;;19.80;99.90;;;;;;5029058;28;20034;-82
2021/06/27 08:39:53;;;;;;;0.07;0.07;;;19.90;99.90;;;;;;5028852;28;20112;-82
2021/06/27 08:42:20;;;;;;;0.10;0.10;;;19.90;99.90;;;;;;5030310;28;20075;-83
2021/06/27 08:44:48;;;;;;;0.17;0.17;;;19.90;99.90;;;;;;5030392;28;20095;-83
2021/06/27 08:47:18;;;;;;;0.00;0.00;;;20.20;99.90;;;;;;5030134;28;20395;-82
2021/06/27 08:49:51;;;;;;;0.00;0.00;;;19.90;99.90;;;;;;5029191;28;20022;-82
2021/06/27 08:52:18;;;;;;;0.00;0.00;;;20.00;99.90;;;;;;5028333;28;20038;-82
2021/06/27 08:54:47;;;;;;;0.05;0.05;;;20.00;99.90;;;;;;5030040;28;20095;-83
2021/06/27 08:57:14;;;;;;;0.13;0.13;;;20.10;99.90;;;;;;5029358;28;20075;-82
2021/06/27 08:59:41;;;;;;;0.10;0.10;;;20.40;99.90;;;;;;5028407;28;20026;-82
2021/06/27 09:02:10;;;;;;;;;;;20.40;99.90;;;;;;5030005;28;20029;-82
2021/06/27 09:04:41;;;;;;;0.30;0.30;;;20.10;99.90;;;;;;5020669;28;20411;-82
2021/06/27 09:07:39;;;;;;;0.10;0.10;;;20.20;99.90;;;;;;5010445;28;20058;-82
2021/06/27 09:10:08;;;;;;;0.00;0.00;;;20.00;99.90;;;;;;5009749;28;20037;-82
2021/06/27 09:12:49;;;;;;;0.03;0.03;;;20.10;99.90;;;;;;5027424;28;20037;-82
2021/06/27 09:15:35;;;;;;;0.00;0.00;;;20.10;99.90;;;;;;5029289;28;20109;-82
2021/06/27 09:18:07;;;;;;;0.10;0.10;;;20.60;99.90;;;;;;5018872;28;20044;-82
2021/06/27 09:20:33;;;;;;;0.05;0.05;;;20.30;99.90;;;;;;5029236;28;20022;-82
2021/06/27 09:22:59;;;;;;;0.00;0.00;;;20.50;99.90;;;;;;5028671;28;20033;-82
2021/06/27 09:25:27;;;;;;;0.03;0.03;;;21.10;99.90;;;;;;5027624;28;20025;-83
2021/06/27 09:28:02;;;;;;;0.10;0.10;;;21.80;99.90;;;;;;5017039;28;20025;-82
2021/06/27 09:30:30;;;;;;;0.10;0.10;;;21.70;99.90;;;;;;5024545;28;20427;-82
2021/06/27 09:32:58;;;;;;;0.10;0.10;;;21.60;99.90;;;;;;5009655;28;20030;-83
2021/06/27 09:35:57;;;;;;;0.05;0.05;;;21.20;99.90;;;;;;5009296;28;20127;-83
2021/06/27 09:38:44;;;;;;;0.00;0.00;;;21.40;99.90;;;;;;5015473;28;20530;-82
2021/06/27 09:41:33;;;;;;;0.00;0.00;;;21.70;99.90;;;;;;5027213;28;20096;-82
2021/06/27 09:44:11;;;;;;;0.10;0.00;;;21.80;99.90;;;;;;5027734;28;20095;-82
2021/06/27 09:46:43;;;;;;;0.17;0.10;;;21.10;99.90;;;;;;5028951;28;20029;-82
2021/06/27 09:49:28;;;;;;;0.10;0.10;;;20.90;99.90;;;;;;5010372;28;20026;-84
2021/06/27 09:51:58;;;;;;;0.07;0.07;;;21.20;99.90;;;;;;5023864;28;20029;-83
2021/06/27 09:54:26;;;;;;;0.10;0.10;;;21.50;99.90;;;;;;5029381;28;20276;-83
2021/06/27 09:56:53;;;;;;;0.10;0.10;;;22.20;99.90;;;;;;5028941;28;20084;-82
2021/06/27 09:59:35;;;;;;;0.00;0.00;;;22.80;99.90;;;;;;5028658;28;20032;-82
2021/06/27 10:02:01;;;;;;;0.32;0.32;;;23.50;99.90;;;;;;5029025;28;20057;-82
2021/06/27 10:04:38;;;;;;;0.22;0.20;;;23.60;99.90;;;;;;5029315;28;20034;-82
2021/06/27 10:07:06;;;;;;;0.10;0.10;;;23.90;99.90;;;;;;5027715;28;21044;-82
2021/06/27 10:09:34;;;;;;;0.05;0.05;;;25.10;99.90;;;;;;5029017;28;20135;-82
2021/06/27 10:12:24;;;;;;;0.05;0.05;;;25.20;99.90;;;;;;5028353;28;20037;-82
2021/06/27 10:14:50;;;;;;;0.40;0.40;;;26.70;99.90;;;;;;5021728;28;20081;-82
2021/06/27 10:17:18;;;;;;;0.30;0.28;;;26.50;99.90;;;;;;5028982;28;20037;-82
2021/06/27 10:19:45;;;;;;;0.22;0.17;;;24.10;99.90;;;;;;5037765;28;20033;-82
2021/06/27 10:22:10;;;;;;;0.05;0.05;;;24.10;99.90;;;;;;5008900;28;20076;-82
2021/06/27 10:24:37;;;;;;;0.55;0.50;;;24.40;99.90;;;;;;5009291;28;20022;-82
2021/06/27 10:27:04;;;;;;;1.75;0.40;;;24.90;99.90;;;;;;5013288;28;20025;-82
2021/06/27 10:29:32;;;;;;;0.25;0.25;;;25.30;99.90;;;;;;5027088;28;20578;-82
2021/06/27 10:31:58;;;;;;;0.15;0.10;;;25.50;99.90;;;;;;5011062;28;20872;-82
2021/06/27 10:34:25;;;;;;;6.43;0.20;;;25.10;99.90;;;;;;5012352;28;20037;-83
2021/06/27 10:36:57;;;;;;;0.10;0.10;;;25.10;99.90;;;;;;5012717;28;20042;-83
2021/06/27 10:39:24;;;;;;;0.20;0.10;;;25.50;99.90;;;;;;5027451;28;20714;-83
2021/06/27 10:42:02;;;;;;;0.00;0.00;;;25.50;99.90;;;;;;5041974;28;20033;-82
2021/06/27 10:44:28;;;;;;;0.38;0.38;;;25.70;99.90;;;;;;5034981;28;20103;-84
2021/06/27 10:47:00;;;;;;;0.20;0.20;;;26.10;99.90;;;;;;5013723;28;20026;-84
2021/06/27 10:49:34;;;;;;;0.30;0.20;;;26.30;99.90;;;;;;5012062;28;20030;-83
2021/06/27 10:52:10;;;;;;;0.08;0.08;;;25.90;99.90;;;;;;5011831;28;20029;-83
2021/06/27 10:54:38;;;;;;;0.00;0.00;;;27.50;99.90;;;;;;5024356;28;20104;-83
2021/06/27 10:57:05;;;;;;;0.15;0.15;;;27.60;98.80;;;;;;5026225;28;20029;-83
2021/06/27 10:59:52;;;;;;;0.10;0.10;;;27.50;97.60;;;;;;5031949;28;20025;-83
2021/06/27 11:02:36;;;;;;;0.30;0.30;;;26.10;97.10;;;;;;5030411;28;20029;-83
2021/06/27 11:05:34;;;;;;;0.32;0.20;;;25.10;99.00;;;;;;5031856;28;20026;-83
2021/06/27 11:08:02;;;;;;;0.20;0.20;;;25.70;98.60;;;;;;5012031;28;20060;-83
2021/06/27 11:10:29;;;;;;;0.43;0.30;;;26.50;97.70;;;;;;5011936;28;20091;-84
2021/06/27 11:12:57;;;;;;;0.00;0.00;;;26.80;96.80;;;;;;5036580;28;20065;-83
2021/06/27 11:15:25;;;;;;;0.43;0.30;;;26.90;96.50;;;;;;5031491;28;20105;-83
2021/06/27 11:17:54;;;;;;;0.13;0.13;;;26.20;96.00;;;;;;5031963;28;20053;-83
2021/06/27 11:20:21;;;;;;;0.30;0.30;;;25.90;97.10;;;;;;5031421;28;20025;-83
2021/06/27 11:22:48;;;;;;;1.40;0.43;;;25.90;96.80;;;;;;5030133;28;20037;-83
2021/06/27 11:25:37;;;;;;;0.00;0.00;;;25.60;96.80;;;;;;5031549;28;20061;-83
2021/06/27 11:28:21;;;;;;;1.08;0.43;;;25.90;96.20;;;;;;5024468;28;20026;-82
2021/06/27 11:30:50;;;;;;;0.45;0.40;;;26.40;96.50;;;;;;5011725;28;20120;-82
2021/06/27 11:33:20;;;;;;;0.30;0.20;;;26.30;95.30;;;;;;5011394;28;20040;-83
2021/06/27 11:35:50;;;;;;;0.20;0.20;;;26.20;95.60;;;;;;5011749;28;20073;-83
2021/06/27 11:38:40;;;;;;;0.50;0.40;;;26.50;95.00;;;;;;5009885;28;20392;-82
2021/06/27 11:41:12;;;;;;;0.00;0.00;;;26.30;94.90;;;;;;5011637;28;20022;-82
2021/06/27 11:43:56;;;;;;;0.10;0.10;;;26.60;95.20;;;;;;5020346;28;20026;-86
2021/06/27 11:46:33;;;;;;;0.30;0.22;;;26.40;94.60;;;;;;5011853;28;20530;-84
2021/06/27 11:49:11;;;;;;;0.00;0.00;;;25.90;95.50;;;;;;5020865;28;20045;-84
2021/06/27 11:51:47;;;;;;;0.13;0.13;;;25.60;96.60;;;;;;5031380;28;20056;-83
2021/06/27 11:54:15;;;;;;;0.10;0.10;;;25.30;97.60;;;;;;5031458;28;20037;-83
2021/06/27 11:57:12;;;;;;;0.28;0.28;;;25.70;97.50;;;;;;5029312;28;20402;-84
2021/06/27 11:59:42;;;;;;;0.47;0.47;;;24.90;97.60;;;;;;4969983;28;20074;-84
2021/06/27 12:02:20;;;;;;;0.22;0.22;;;25.50;97.10;;;;;;4970164;28;20049;-83
2021/06/27 12:04:51;;;;;;;0.30;0.30;;;25.30;96.70;;;;;;4969900;28;20035;-84
2021/06/27 12:07:35;;;;;;;0.10;0.10;;;25.10;97.00;;;;;;4969766;28;20133;-84
2021/06/27 12:10:20;;;;;;;0.00;0.00;;;25.60;97.50;;;;;;4976948;28;20043;-84
2021/06/27 12:12:59;;;;;;;0.45;0.32;;;25.50;97.00;;;;;;4988956;28;20042;-84
2021/06/27 12:15:27;;;;;;;0.28;0.28;;;25.60;97.80;;;;;;4983429;28;20031;-84
2021/06/27 12:18:13;;;;;;;0.30;0.30;;;26.00;97.00;;;;;;4969531;28;20030;-84
2021/06/27 12:20:49;;;;;;;0.10;0.10;;;25.10;97.20;;;;;;4969615;28;20034;-84
2021/06/27 12:23:37;;;;;;;0.10;0.10;;;25.50;97.50;;;;;;4974345;28;20037;-84
2021/06/27 12:26:06;;;;;;;0.20;0.20;;;25.20;98.10;;;;;;4985681;28;20617;-84
2021/06/27 12:28:33;;;;;;;0.60;0.47;;;24.70;98.10;;;;;;4989178;28;20046;-83
2021/06/27 12:31:06;;;;;;;0.17;0.10;;;24.50;98.70;;;;;;4988829;28;20037;-84
2021/06/27 12:33:37;;;;;;;0.45;0.45;;;25.20;98.50;;;;;;4988678;28;20041;-83
2021/06/27 12:36:07;;;;;;;0.47;0.47;;;24.60;99.50;;;;;;5006843;28;20041;-83
2021/06/27 12:38:33;;;;;;;1.45;0.85;;;24.00;99.90;;;;;;5011048;28;20056;-83
2021/06/27 12:41:02;;;;;;;0.10;0.10;;;23.60;99.90;;;;;;5018355;28;20029;-83
2021/06/27 12:43:54;;;;;;;0.10;0.10;;;22.90;99.90;;;;;;5030328;28;20043;-83
2021/06/27 12:46:21;;;;;;;0.20;0.20;;;22.60;99.90;;;;;;5045943;28;20076;-83
2021/06/27 12:48:51;;;;;;;0.40;0.40;;;22.70;99.90;;;;;;5036111;28;20032;-83
2021/06/27 12:51:30;;;;;;;0.00;0.00;;;23.50;99.90;;;;;;5025796;28;20026;-83
2021/06/27 12:53:56;;;;;;;0.43;0.40;;;24.10;99.90;;;;;;5028776;28;20025;-82
2021/06/27 12:56:22;;;;;;;0.60;0.13;;;24.80;99.90;;;;;;5029652;28;20037;-82